Time;durP1;ratioP1;P1;durP2;ratioP2;P2;SDS_P1;SDS_P2;PMS_P1;PMS_P2;Temp;Humidity;BMP_temperature;BMP_pressure;BME280_temperature;BME280_humidity;BME280_pressure;Samples;Min_cycle;Max_cycle;Signal;HPM_P1;HPM_P2
2023/04/18 00:02:03;;;;;;;7.93;5.90;;;;;;;11.58;29.87;102056.06;5034271;28;20049;-73
2023/04/18 00:04:32;;;;;;;8.27;5.65;;;;;;;11.55;29.47;102051.69;5027175;28;20353;-73
2023/04/18 00:07:00;;;;;;;7.47;5.03;;;;;;;11.53;29.45;102053.69;5020277;28;20053;-73
2023/04/18 00:09:28;;;;;;;7.80;5.65;;;;;;;11.53;29.90;102050.06;5021079;28;20137;-73
2023/04/18 00:11:56;;;;;;;9.10;5.63;;;;;;;11.51;29.76;102052.03;5005479;28;20676;-74
2023/04/18 00:14:24;;;;;;;9.80;5.80;;;;;;;11.50;30.04;102050.25;5025214;28;20393;-73
2023/04/18 00:16:53;;;;;;;8.85;6.10;;;;;;;11.50;29.89;102051.16;5022308;28;20049;-73
2023/04/18 00:19:21;;;;;;;8.90;5.75;;;;;;;11.47;29.50;102040.38;5005433;28;20049;-73
2023/04/18 00:21:51;;;;;;;9.07;6.07;;;;;;;11.46;29.78;102049.63;5004493;28;20253;-74
2023/04/18 00:24:19;;;;;;;8.70;5.85;;;;;;;11.45;29.51;102041.50;5023170;28;20042;-74
2023/04/18 00:26:48;;;;;;;9.00;5.88;;;;;;;11.44;29.52;102039.75;5021169;28;20061;-73
2023/04/18 00:29:15;;;;;;;8.43;6.10;;;;;;;11.42;29.62;102037.13;5022866;28;20138;-74
2023/04/18 00:31:43;;;;;;;8.60;5.93;;;;;;;11.39;29.87;102040.06;5006368;28;20136;-73
2023/04/18 00:34:13;;;;;;;7.13;5.38;;;;;;;11.39;29.80;102037.31;5030602;28;20667;-74
2023/04/18 00:36:41;;;;;;;8.95;5.93;;;;;;;11.34;29.61;102037.69;5023092;28;20053;-74
2023/04/18 00:39:09;;;;;;;8.45;5.90;;;;;;;11.33;29.50;102037.78;5027432;28;20596;-73
2023/04/18 00:41:37;;;;;;;7.32;5.80;;;;;;;11.30;29.71;102044.38;5021177;28;20071;-74
2023/04/18 00:44:05;;;;;;;7.35;5.68;;;;;;;11.27;29.66;102039.09;5023177;28;20115;-74
2023/04/18 00:46:33;;;;;;;7.60;5.63;;;;;;;11.24;29.84;102042.06;5004748;28;20440;-73
2023/04/18 00:49:01;;;;;;;9.20;5.93;;;;;;;11.21;29.82;102038.69;5024387;28;20552;-73
2023/04/18 00:51:30;;;;;;;8.30;6.05;;;;;;;11.20;29.70;102034.19;5008796;28;20056;-73
2023/04/18 00:53:59;;;;;;;8.23;5.75;;;;;;;11.15;30.35;102028.13;5023408;28;20334;-73
2023/04/18 00:56:27;;;;;;;8.63;5.88;;;;;;;11.13;29.93;102035.59;5022569;28;20053;-73
2023/04/18 00:58:58;;;;;;;8.27;6.43;;;;;;;11.10;30.04;102036.69;5024158;28;20033;-74
2023/04/18 01:01:26;;;;;;;7.72;6.00;;;;;;;11.08;30.69;102040.53;5017324;28;20042;-72
2023/04/18 01:03:54;;;;;;;11.45;6.63;;;;;;;11.04;30.59;102034.41;5003992;28;20053;-73
2023/04/18 01:06:22;;;;;;;9.48;6.43;;;;;;;11.02;30.23;102025.41;5009394;28;20037;-73
2023/04/18 01:08:52;;;;;;;9.30;6.75;;;;;;;10.99;30.08;102028.34;5023118;28;20511;-73
2023/04/18 01:11:20;;;;;;;9.82;6.32;;;;;;;10.95;30.65;102022.22;5026070;28;20048;-73
2023/04/18 01:13:58;;;;;;;8.13;6.38;;;;;;;10.95;30.81;102021.34;5023911;28;20425;-73
2023/04/18 01:16:28;;;;;;;8.85;6.43;;;;;;;10.89;30.33;102021.81;5004940;28;20056;-74
2023/04/18 01:18:56;;;;;;;8.70;5.93;;;;;;;10.85;30.85;102018.38;5020737;28;20065;-75
2023/04/18 01:21:25;;;;;;;7.95;6.07;;;;;;;10.84;30.85;102021.22;5006789;28;20041;-75
2023/04/18 01:23:56;;;;;;;8.90;6.18;;;;;;;10.82;30.74;102020.44;5019440;28;20084;-75
2023/04/18 01:26:25;;;;;;;9.20;6.57;;;;;;;10.79;31.18;102012.47;5020674;28;20049;-75
2023/04/18 01:28:53;;;;;;;9.45;6.05;;;;;;;10.74;31.33;102011.91;5024614;28;20049;-72
2023/04/18 01:31:21;;;;;;;8.10;6.15;;;;;;;10.69;31.65;102009.50;5019087;28;20045;-73
2023/04/18 01:33:49;;;;;;;8.38;5.80;;;;;;;10.64;31.33;102008.94;5013676;28;20053;-73
2023/04/18 01:36:17;;;;;;;8.27;6.40;;;;;;;10.63;31.60;102003.56;5024129;28;20050;-73
2023/04/18 01:38:45;;;;;;;8.23;6.20;;;;;;;10.58;32.03;102009.34;5022158;28;20037;-73
2023/04/18 01:41:12;;;;;;;8.20;6.47;;;;;;;10.54;31.92;102007.81;5022946;28;20141;-73
2023/04/18 01:43:43;;;;;;;8.52;6.15;;;;;;;10.52;31.87;102012.50;5023075;28;20107;-73
2023/04/18 01:46:11;;;;;;;8.13;6.57;;;;;;;10.48;32.52;102008.22;5015447;28;20796;-72
2023/04/18 01:48:39;;;;;;;9.10;6.50;;;;;;;10.45;32.64;102001.09;5020083;28;20520;-73
2023/04/18 01:51:07;;;;;;;8.75;6.10;;;;;;;10.43;32.43;102003.06;5021141;28;20049;-69
2023/04/18 01:53:35;;;;;;;8.75;6.07;;;;;;;10.40;32.48;102005.16;5023533;28;20091;-69
2023/04/18 01:56:03;;;;;;;9.23;6.15;;;;;;;10.37;32.34;101997.13;5005145;28;20424;-69
2023/04/18 01:58:31;;;;;;;9.48;6.47;;;;;;;10.35;32.54;101997.22;5028013;28;20427;-69
2023/04/18 02:01:00;;;;;;;8.48;6.03;;;;;;;10.34;32.54;101997.34;5025473;28;20041;-68
2023/04/18 02:03:28;;;;;;;9.32;5.97;;;;;;;10.31;33.12;102003.03;5021120;28;20137;-68
2023/04/18 02:05:56;;;;;;;8.32;6.38;;;;;;;10.30;32.73;101998.53;5012939;28;20041;-69
2023/04/18 02:08:24;;;;;;;8.10;5.97;;;;;;;10.28;33.24;101995.03;5005205;28;20041;-69
2023/04/18 02:10:52;;;;;;;8.75;6.72;;;;;;;10.25;33.18;101993.38;5022404;28;20052;-69
2023/04/18 02:13:20;;;;;;;8.63;6.40;;;;;;;10.23;33.42;101995.34;5021600;28;20126;-69
2023/04/18 02:15:48;;;;;;;7.93;6.30;;;;;;;10.19;33.07;101997.41;5021807;28;20479;-68
2023/04/18 02:18:18;;;;;;;8.70;6.20;;;;;;;10.19;33.88;101991.94;5008445;28;20578;-69
2023/04/18 02:20:46;;;;;;;8.15;6.07;;;;;;;10.15;33.72;101987.63;5023326;28;20045;-70
2023/04/18 02:23:14;;;;;;;9.02;6.40;;;;;;;10.14;33.56;101990.50;5006977;28;20527;-69
2023/04/18 02:25:42;;;;;;;8.27;6.40;;;;;;;10.10;33.45;101992.56;5021319;28;20586;-69
2023/04/18 02:28:10;;;;;;;9.13;6.60;;;;;;;10.08;33.95;101996.38;5022101;28;20063;-69
2023/04/18 02:30:38;;;;;;;7.72;6.18;;;;;;;10.05;33.54;101991.13;5024838;28;20504;-69
2023/04/18 02:33:06;;;;;;;8.13;5.80;;;;;;;10.03;33.73;101998.53;5031997;28;20307;-70
2023/04/18 02:35:37;;;;;;;8.95;6.60;;;;;;;10.01;33.73;102001.38;5025598;28;20099;-70
2023/04/18 02:38:05;;;;;;;9.30;6.22;;;;;;;9.97;33.83;101993.50;5030339;28;20136;-69
2023/04/18 02:40:33;;;;;;;9.77;6.65;;;;;;;9.95;34.24;101992.72;5024646;28;20133;-69
2023/04/18 02:43:01;;;;;;;8.73;5.95;;;;;;;9.91;34.38;101992.03;5006510;28;20096;-69
2023/04/18 02:45:29;;;;;;;7.35;6.05;;;;;;;9.89;34.45;101994.00;5007647;28;20049;-69
2023/04/18 02:47:59;;;;;;;9.02;5.43;;;;;;;9.87;34.05;101992.34;5002822;28;20417;-68
2023/04/18 02:50:27;;;;;;;8.27;5.25;;;;;;;9.86;34.08;101996.94;5023040;28;20068;-69
2023/04/18 02:52:58;;;;;;;7.55;6.18;;;;;;;9.85;34.53;101990.59;5029589;28;20092;-71
2023/04/18 02:55:37;;;;;;;8.60;6.10;;;;;;;9.83;34.17;101998.00;5022043;28;20505;-68
2023/04/18 02:58:05;;;;;;;7.88;5.63;;;;;;;9.81;34.58;102004.59;5008043;28;20973;-69
2023/04/18 03:00:35;;;;;;;8.82;6.32;;;;;;;9.77;34.66;101998.44;5016984;28;20057;-69
2023/04/18 03:03:18;;;;;;;8.23;6.03;;;;;;;9.72;34.47;102006.06;5024880;28;20050;-69
2023/04/18 03:05:55;;;;;;;7.60;5.57;;;;;;;9.71;34.50;101996.09;5026713;28;20512;-69
2023/04/18 03:08:24;;;;;;;8.07;5.82;;;;;;;9.71;35.00;101998.84;5026624;28;20093;-69
2023/04/18 03:10:54;;;;;;;8.23;6.03;;;;;;;9.68;34.89;102006.34;5026851;28;20120;-69
2023/04/18 03:13:24;;;;;;;9.20;5.60;;;;;;;9.65;34.61;102015.66;5010347;28;20140;-69
2023/04/18 03:15:52;;;;;;;7.90;5.68;;;;;;;9.63;34.93;102009.41;5002070;28;20057;-69
2023/04/18 03:18:20;;;;;;;8.88;6.30;;;;;;;9.61;35.05;102007.75;5020907;28;20060;-69
2023/04/18 03:20:49;;;;;;;9.20;6.22;;;;;;;9.57;35.10;102007.09;5021497;28;20056;-69
2023/04/18 03:23:17;;;;;;;8.15;6.20;;;;;;;9.56;35.02;102007.16;5006441;28;20049;-68
2023/04/18 03:25:47;;;;;;;8.73;6.18;;;;;;;9.56;35.07;102010.78;5015620;28;20050;-69
2023/04/18 03:28:15;;;;;;;9.18;5.90;;;;;;;9.51;35.36;102012.03;5026864;28;20131;-69
2023/04/18 03:30:43;;;;;;;8.23;5.82;;;;;;;9.50;34.85;102015.75;5020350;28;20073;-69
2023/04/18 03:33:12;;;;;;;7.35;5.63;;;;;;;9.47;34.96;102014.09;5021427;28;20096;-69
2023/04/18 03:35:40;;;;;;;8.38;5.90;;;;;;;9.47;35.33;102011.38;5010926;28;20142;-69
2023/04/18 03:38:08;;;;;;;8.63;6.50;;;;;;;9.43;35.14;102010.69;5029639;28;20048;-69
2023/04/18 03:40:39;;;;;;;8.52;6.00;;;;;;;9.42;35.09;102014.38;5008228;28;20045;-69
2023/04/18 03:43:15;;;;;;;8.73;6.22;;;;;;;9.41;35.15;102017.25;5018548;28;20136;-71
2023/04/18 03:45:46;;;;;;;10.13;6.38;;;;;;;9.37;35.63;102011.06;5017171;28;20493;-69
2023/04/18 03:48:15;;;;;;;8.05;6.15;;;;;;;9.35;35.66;102009.38;5024919;28;20041;-68
2023/04/18 03:50:45;;;;;;;9.52;6.65;;;;;;;9.33;35.27;102008.63;5010666;28;20049;-69
2023/04/18 03:53:13;;;;;;;9.15;6.22;;;;;;;9.30;35.45;102006.97;5004677;28;20121;-70
2023/04/18 03:55:42;;;;;;;8.52;5.93;;;;;;;9.30;35.83;102009.69;5007145;28;20578;-69
2023/04/18 03:58:12;;;;;;;8.48;6.32;;;;;;;9.27;35.88;102007.16;5023506;28;20053;-69
2023/04/18 04:00:41;;;;;;;8.57;6.45;;;;;;;9.25;35.77;102011.81;5007221;28;20045;-68
2023/04/18 04:03:10;;;;;;;8.65;6.13;;;;;;;9.25;35.81;102013.69;5010592;28;20037;-70
2023/04/18 04:05:39;;;;;;;7.80;6.18;;;;;;;9.22;35.88;102013.91;5007667;28;20054;-69
2023/04/18 04:08:07;;;;;;;8.07;6.63;;;;;;;9.19;35.62;102011.34;5022823;28;20563;-69
2023/04/18 04:10:35;;;;;;;8.32;6.30;;;;;;;9.17;35.48;102016.91;4999218;28;20044;-70
2023/04/18 04:13:03;;;;;;;9.25;6.57;;;;;;;9.16;35.63;102017.91;4997306;28;20053;-70
2023/04/18 04:15:36;;;;;;;8.00;5.80;;;;;;;9.15;35.81;102020.72;5020744;28;20268;-70
2023/04/18 04:18:07;;;;;;;8.00;6.10;;;;;;;9.13;35.78;102028.13;5021768;28;20040;-69
2023/04/18 04:20:39;;;;;;;8.45;6.18;;;;;;;9.09;35.89;102028.31;5022295;28;20049;-70
2023/04/18 04:23:14;;;;;;;8.00;6.32;;;;;;;9.08;36.23;102023.81;5023223;28;20421;-71
2023/04/18 04:25:45;;;;;;;8.82;6.22;;;;;;;9.07;35.78;102035.75;5020532;28;20043;-70
2023/04/18 04:28:25;;;;;;;8.00;5.90;;;;;;;9.05;35.70;102028.63;5006928;28;20132;-70
2023/04/18 04:30:58;;;;;;;8.30;5.88;;;;;;;9.05;36.02;102032.22;5029375;28;20051;-64
2023/04/18 04:33:28;;;;;;;9.18;6.03;;;;;;;9.06;36.08;102027.66;5003843;28;20050;-71
2023/04/18 04:36:01;;;;;;;8.30;5.82;;;;;;;9.05;36.33;102034.06;5012535;28;20041;-71
2023/04/18 04:38:32;;;;;;;7.63;5.43;;;;;;;9.05;36.42;102047.72;4985657;28;20053;-70
2023/04/18 04:41:00;;;;;;;8.00;5.78;;;;;;;9.06;36.08;102044.91;5005859;28;20535;-70
2023/04/18 04:43:29;;;;;;;8.20;5.88;;;;;;;9.08;36.44;102053.00;5004927;28;20052;-70
2023/04/18 04:45:57;;;;;;;8.02;5.72;;;;;;;9.07;36.18;102057.59;5036559;28;20060;-69
2023/04/18 04:48:25;;;;;;;7.28;5.45;;;;;;;9.10;36.65;102053.78;5042854;28;20103;-68
2023/04/18 04:50:56;;;;;;;8.48;5.45;;;;;;;9.13;36.70;102056.31;5035352;28;20063;-69
2023/04/18 04:53:26;;;;;;;7.47;5.50;;;;;;;9.15;36.13;102058.97;5047686;28;20068;-69
2023/04/18 04:55:54;;;;;;;7.63;6.10;;;;;;;9.16;36.65;102058.00;5045699;28;20049;-69
2023/04/18 04:58:23;;;;;;;8.90;6.63;;;;;;;9.18;36.40;102064.22;5059065;28;20540;-70
2023/04/18 05:01:01;;;;;;;8.05;5.90;;;;;;;9.17;36.04;102068.78;5061360;28;20096;-70
2023/04/18 05:03:31;;;;;;;7.80;5.78;;;;;;;9.18;36.23;102064.22;5061633;28;20053;-71
2023/04/18 05:06:01;;;;;;;8.02;5.90;;;;;;;9.21;36.22;102077.69;5053246;28;20052;-70
2023/04/18 05:08:29;;;;;;;8.30;5.95;;;;;;;9.21;36.19;102069.50;5058983;28;20040;-69
2023/04/18 05:10:57;;;;;;;7.53;5.72;;;;;;;9.21;36.65;102073.09;5060927;28;20656;-69
2023/04/18 05:13:24;;;;;;;6.60;5.55;;;;;;;9.22;36.40;102077.59;5061782;28;20048;-70
2023/04/18 05:15:52;;;;;;;8.90;6.43;;;;;;;9.24;36.78;102080.25;5061574;28;20045;-71
2023/04/18 05:18:20;;;;;;;8.57;6.07;;;;;;;9.25;36.23;102081.97;5058396;28;20049;-70
2023/04/18 05:20:48;;;;;;;8.63;6.18;;;;;;;9.27;36.50;102083.63;5059643;28;20063;-71
2023/04/18 05:23:17;;;;;;;8.27;6.72;;;;;;;9.29;36.90;102086.28;5060750;28;20557;-71
2023/04/18 05:25:45;;;;;;;9.00;5.80;;;;;;;9.30;36.50;102082.56;5059314;28;20113;-71
2023/04/18 05:28:13;;;;;;;8.40;6.22;;;;;;;9.31;36.43;102085.22;5061007;28;20377;-69
2023/04/18 05:30:41;;;;;;;9.90;6.50;;;;;;;9.33;36.94;102087.88;5049595;28;20078;-70
2023/04/18 05:33:09;;;;;;;9.48;6.75;;;;;;;9.35;36.76;102089.50;5071226;28;20040;-70
2023/04/18 05:35:37;;;;;;;8.20;6.45;;;;;;;9.35;36.74;102094.97;5064577;28;20047;-70
2023/04/18 05:38:05;;;;;;;9.05;6.38;;;;;;;9.36;36.96;102096.72;5064623;28;20057;-70
2023/04/18 05:40:34;;;;;;;8.30;6.28;;;;;;;9.38;36.98;102100.28;5064563;28;20037;-70
2023/04/18 05:43:02;;;;;;;8.20;6.05;;;;;;;9.38;37.05;102093.91;5049743;28;20059;-70
2023/04/18 05:45:30;;;;;;;9.50;6.78;;;;;;;9.38;37.01;102094.81;5062875;28;20060;-70
2023/04/18 05:47:58;;;;;;;10.30;6.53;;;;;;;9.39;36.87;102104.78;5060557;28;20058;-70
2023/04/18 05:50:26;;;;;;;7.78;6.03;;;;;;;9.39;36.93;102107.50;5063230;28;20036;-72
2023/04/18 05:52:53;;;;;;;9.10;6.78;;;;;;;9.41;36.75;102111.00;5059323;28;20048;-72
2023/04/18 05:55:21;;;;;;;10.27;7.40;;;;;;;9.41;36.64;102112.88;5066276;28;20047;-72
2023/04/18 05:57:50;;;;;;;9.07;7.13;;;;;;;9.44;37.04;102110.81;5036473;28;20067;-71
2023/04/18 06:00:19;;;;;;;9.27;6.45;;;;;;;9.43;36.71;102113.63;5058899;28;20040;-72
2023/04/18 06:02:48;;;;;;;10.02;7.68;;;;;;;9.44;37.21;102124.47;5062780;28;20087;-71
2023/04/18 06:05:16;;;;;;;10.35;7.15;;;;;;;9.44;36.82;102127.22;5061755;28;20047;-72
2023/04/18 06:07:44;;;;;;;11.43;7.68;;;;;;;9.49;37.26;102134.25;5065344;28;20423;-71
2023/04/18 06:10:12;;;;;;;9.27;6.60;;;;;;;9.51;36.73;102124.09;5063261;28;20041;-71
2023/04/18 06:12:40;;;;;;;9.57;7.32;;;;;;;9.53;37.18;102114.81;5063922;28;20047;-71
2023/04/18 06:15:11;;;;;;;8.70;6.93;;;;;;;9.60;37.42;102120.78;5061809;28;20040;-71
2023/04/18 06:17:39;;;;;;;9.40;6.97;;;;;;;9.63;37.33;102126.06;5061212;28;20147;-71
2023/04/18 06:20:07;;;;;;;8.43;6.25;;;;;;;9.69;37.10;102126.53;5068463;28;20040;-71
2023/04/18 06:22:35;;;;;;;9.13;6.20;;;;;;;9.76;37.01;102124.28;5058730;28;20044;-71
2023/04/18 06:25:03;;;;;;;8.50;6.65;;;;;;;9.83;37.36;102122.91;5065607;28;20529;-71
2023/04/18 06:27:31;;;;;;;10.32;7.38;;;;;;;9.91;37.44;102128.75;5065477;28;20599;-71
2023/04/18 06:29:59;;;;;;;9.75;6.88;;;;;;;9.99;36.96;102126.41;5063499;28;20048;-72
2023/04/18 06:32:28;;;;;;;10.45;6.68;;;;;;;10.12;37.29;102118.28;5056523;28;20056;-71
2023/04/18 06:34:56;;;;;;;10.50;6.97;;;;;;;10.19;36.83;102127.84;5064532;28;20041;-71
2023/04/18 06:37:24;;;;;;;9.35;6.88;;;;;;;10.30;36.74;102125.28;5060545;28;20641;-71
2023/04/18 06:39:52;;;;;;;9.07;6.85;;;;;;;10.39;37.05;102132.00;5063199;28;20036;-71
2023/04/18 06:42:21;;;;;;;8.88;6.88;;;;;;;10.47;36.27;102119.56;5065131;28;20068;-71
2023/04/18 06:44:49;;;;;;;8.88;6.60;;;;;;;10.54;36.70;102131.88;5062125;28;20428;-71
2023/04/18 06:47:17;;;;;;;8.90;6.60;;;;;;;10.65;36.31;102130.28;5064600;28;20064;-71
2023/04/18 06:49:47;;;;;;;9.63;6.60;;;;;;;10.76;36.13;102127.69;5046682;28;20044;-71
2023/04/18 06:52:14;;;;;;;8.90;6.15;;;;;;;10.80;36.13;102135.59;5065117;28;20041;-70
2023/04/18 06:54:42;;;;;;;9.75;6.05;;;;;;;10.92;36.54;102133.84;5047331;28;20072;-70
2023/04/18 06:57:10;;;;;;;8.43;6.47;;;;;;;11.01;35.97;102135.09;5061534;28;20057;-70
2023/04/18 06:59:40;;;;;;;8.40;6.13;;;;;;;11.08;36.30;102131.81;5038756;28;20041;-71
2023/04/18 07:02:08;;;;;;;9.00;6.10;;;;;;;11.16;36.54;102137.63;5061035;28;20064;-70
2023/04/18 07:04:36;;;;;;;8.60;6.72;;;;;;;11.26;35.96;102138.75;5068481;28;20051;-70
2023/04/18 07:07:05;;;;;;;8.55;6.40;;;;;;;11.39;36.17;102137.91;5061549;28;20072;-69
2023/04/18 07:09:33;;;;;;;8.32;6.07;;;;;;;11.45;35.82;102130.13;5064139;28;20051;-69
2023/04/18 07:12:01;;;;;;;8.32;6.07;;;;;;;11.55;35.70;102136.69;5061072;28;20189;-70
2023/04/18 07:14:29;;;;;;;7.88;6.10;;;;;;;11.65;35.62;102140.53;5057536;28;20044;-70
2023/04/18 07:17:00;;;;;;;7.07;5.40;;;;;;;11.75;36.17;102140.75;5065757;28;20037;-72
2023/04/18 07:19:28;;;;;;;7.20;5.43;;;;;;;11.87;36.11;102137.16;5055001;28;20064;-62
2023/04/18 07:21:56;;;;;;;7.97;5.30;;;;;;;11.96;35.80;102152.94;5071586;28;20044;-73
2023/04/18 07:24:25;;;;;;;7.53;5.43;;;;;;;12.08;35.28;102148.41;5064047;28;20044;-71
2023/04/18 07:26:53;;;;;;;7.22;5.70;;;;;;;12.11;34.91;102153.66;5046940;28;20135;-74
2023/04/18 07:29:22;;;;;;;8.48;5.60;;;;;;;12.15;34.57;102154.31;5067272;28;20127;-71
2023/04/18 07:31:50;;;;;;;7.32;5.88;;;;;;;12.13;34.47;102163.53;5060532;28;20482;-70
2023/04/18 07:34:17;;;;;;;7.28;5.40;;;;;;;12.09;34.30;102156.53;5063262;28;20040;-70
2023/04/18 07:36:45;;;;;;;7.22;5.70;;;;;;;12.03;33.79;102159.72;5062351;28;20565;-70
2023/04/18 07:39:13;;;;;;;8.23;6.00;;;;;;;11.95;33.90;102161.28;5040971;28;20044;-70
2023/04/18 07:41:42;;;;;;;8.18;6.05;;;;;;;11.88;34.10;102168.19;5064978;28;20058;-70
2023/04/18 07:44:10;;;;;;;7.00;5.50;;;;;;;11.76;34.10;102164.47;5065612;28;20055;-73
2023/04/18 07:46:38;;;;;;;7.72;5.68;;;;;;;11.65;33.83;102167.09;5064951;28;20052;-71
2023/04/18 07:49:06;;;;;;;6.85;5.22;;;;;;;11.54;34.18;102148.66;5064734;28;20083;-71
2023/04/18 07:51:34;;;;;;;7.93;5.10;;;;;;;11.44;34.21;102171.34;5063770;22;20068;-84
2023/04/18 07:54:02;;;;;;;7.05;5.60;;;;;;;11.33;34.48;102170.22;5047436;28;20128;-83
2023/04/18 07:56:30;;;;;;;7.03;5.63;;;;;;;11.25;34.60;102169.88;5036279;28;20063;-83
2023/04/18 07:59:00;;;;;;;7.78;5.38;;;;;;;11.19;34.22;102170.31;5041901;28;20045;-86
2023/04/18 08:01:28;;;;;;;7.63;5.70;;;;;;;11.09;34.97;102176.53;5059153;28;20044;-84
2023/04/18 08:04:00;;;;;;;7.40;5.63;;;;;;;11.03;34.73;102175.09;5077947;28;20056;-85
2023/04/18 08:06:29;;;;;;;8.25;5.75;;;;;;;10.94;34.94;102175.72;5061548;28;20051;-84
2023/04/18 08:09:01;;;;;;;8.13;5.65;;;;;;;10.88;35.28;102178.91;5076801;28;20036;-84
2023/04/18 08:11:30;;;;;;;6.68;5.80;;;;;;;10.82;35.00;102187.50;5063018;28;20106;-85
2023/04/18 08:13:58;;;;;;;8.40;6.07;;;;;;;10.79;35.17;102191.34;5074330;28;20049;-84
2023/04/18 08:16:28;;;;;;;8.00;6.25;;;;;;;10.76;35.46;102187.94;5075064;28;20109;-85
2023/04/18 08:18:56;;;;;;;7.43;5.97;;;;;;;10.73;35.15;102185.41;5061950;23;20044;-75
2023/04/18 08:21:25;;;;;;;8.38;6.47;;;;;;;10.68;35.65;102191.19;5056076;28;20059;-73
2023/04/18 08:23:53;;;;;;;7.90;6.20;;;;;;;10.67;35.74;102188.53;5068900;28;20051;-74
2023/04/18 08:26:21;;;;;;;7.38;6.20;;;;;;;10.61;35.20;102200.78;5049972;28;20048;-74
2023/04/18 08:28:50;;;;;;;8.23;6.32;;;;;;;10.55;35.41;102191.13;5067451;28;20049;-74
2023/04/18 08:31:18;;;;;;;8.70;6.72;;;;;;;10.54;35.83;102188.50;5063589;28;20406;-73
2023/04/18 08:33:47;;;;;;;8.48;6.13;;;;;;;10.51;35.73;102180.44;5072102;28;20042;-74
2023/04/18 08:36:15;;;;;;;8.48;6.68;;;;;;;10.45;35.70;102187.22;5067266;28;20064;-73
2023/04/18 08:38:43;;;;;;;8.57;6.22;;;;;;;10.44;36.26;102185.44;5068717;28;20075;-73
2023/04/18 08:41:11;;;;;;;8.05;5.88;;;;;;;10.43;35.74;102186.44;5049163;28;20054;-73
2023/04/18 08:43:39;;;;;;;8.27;6.07;;;;;;;10.40;36.05;102183.03;5064022;28;20055;-74
2023/04/18 08:46:07;;;;;;;7.95;6.40;;;;;;;10.40;36.18;102188.50;5043310;28;20049;-74
2023/04/18 08:48:35;;;;;;;8.63;6.97;;;;;;;10.38;36.34;102187.72;5067372;28;20072;-74
2023/04/18 08:51:05;;;;;;;8.88;6.10;;;;;;;10.41;36.62;102190.22;5075349;28;20093;-74
2023/04/18 08:53:34;;;;;;;10.07;5.95;;;;;;;10.40;36.43;102196.72;5067163;28;20047;-74
2023/04/18 08:56:04;;;;;;;7.97;6.00;;;;;;;10.39;36.33;102195.84;5070463;28;20098;-74
2023/04/18 08:58:33;;;;;;;8.88;6.55;;;;;;;10.37;36.20;102189.56;5068387;28;20528;-74
2023/04/18 09:01:01;;;;;;;8.50;6.20;;;;;;;10.38;36.19;102198.66;5066763;28;20052;-74
2023/04/18 09:03:38;;;;;;;8.55;6.18;;;;;;;10.40;36.93;102199.44;5073524;28;20050;-74
2023/04/18 09:06:11;;;;;;;8.00;5.88;;;;;;;10.38;36.34;102205.03;5062749;28;20379;-74
2023/04/18 09:08:42;;;;;;;7.43;5.82;;;;;;;10.36;36.21;102203.34;5071657;28;20037;-74
2023/04/18 09:11:27;;;;;;;7.82;5.82;;;;;;;10.39;36.32;102200.44;5067731;28;20037;-74
2023/04/18 09:13:58;;;;;;;8.20;5.82;;;;;;;10.37;36.40;102205.13;5072852;28;20573;-74
2023/04/18 09:16:28;;;;;;;8.93;6.07;;;;;;;10.38;36.29;102201.41;5058188;28;20525;-74
2023/04/18 09:19:12;;;;;;;8.38;5.97;;;;;;;10.40;36.91;102203.03;5061811;28;20036;-73
2023/04/18 09:21:45;;;;;;;6.97;5.55;;;;;;;10.41;36.54;102201.19;5067561;28;20143;-73
2023/04/18 09:24:22;;;;;;;8.52;6.10;;;;;;;10.45;37.16;102197.28;5074653;28;20372;-74
2023/04/18 09:26:52;;;;;;;7.50;5.78;;;;;;;10.44;36.95;102201.00;5071659;28;20115;-74
2023/04/18 09:29:22;;;;;;;9.45;6.13;;;;;;;10.46;36.49;102194.44;5074204;28;20055;-74
2023/04/18 09:31:59;;;;;;;9.35;6.50;;;;;;;10.50;36.94;102189.63;5072457;28;20470;-74
2023/04/18 09:34:28;;;;;;;9.35;6.40;;;;;;;10.46;37.20;102191.72;5054751;28;20056;-74
2023/04/18 09:37:09;;;;;;;9.85;6.63;;;;;;;10.50;36.84;102197.84;5066376;28;20285;-74
2023/04/18 09:39:38;;;;;;;8.90;6.95;;;;;;;10.47;37.07;102192.59;5066861;28;20696;-74
2023/04/18 09:42:06;;;;;;;10.60;7.15;;;;;;;10.49;37.14;102187.88;5070471;28;20490;-74
2023/04/18 09:44:34;;;;;;;9.48;6.43;;;;;;;10.53;36.95;102187.63;5070373;28;20097;-74
2023/04/18 09:47:02;;;;;;;10.07;6.68;;;;;;;10.57;37.13;102185.53;5069266;28;20052;-74
2023/04/18 09:49:30;;;;;;;10.57;7.30;;;;;;;10.60;37.70;102185.34;5074609;28;20044;-73
2023/04/18 09:52:01;;;;;;;9.02;6.32;;;;;;;10.67;37.43;102183.06;5071503;28;20059;-73
2023/04/18 09:54:32;;;;;;;9.82;6.95;;;;;;;10.70;38.06;102180.13;5073007;28;20127;-74
2023/04/18 09:57:03;;;;;;;10.38;7.40;;;;;;;10.75;37.87;102175.22;5067041;28;20383;-75
2023/04/18 09:59:41;;;;;;;11.00;7.38;;;;;;;10.81;37.71;102174.81;5067150;28;20449;-74
2023/04/18 10:02:15;;;;;;;10.20;7.47;;;;;;;10.85;38.17;102170.88;5066246;28;20066;-74
2023/04/18 10:04:46;;;;;;;10.57;7.25;;;;;;;10.88;37.96;102168.81;5075617;28;20045;-74
2023/04/18 10:07:16;;;;;;;11.88;7.82;;;;;;;10.94;37.79;102178.47;5069782;28;20082;-74
2023/04/18 10:09:47;;;;;;;10.30;7.45;;;;;;;11.02;37.54;102169.72;5049014;28;20683;-74
2023/04/18 10:12:16;;;;;;;11.52;8.10;;;;;;;11.05;37.51;102161.31;5067278;28;20064;-74
2023/04/18 10:14:45;;;;;;;10.20;7.38;;;;;;;11.11;37.42;102169.09;5071018;28;20498;-74
2023/04/18 10:17:14;;;;;;;11.23;7.13;;;;;;;11.16;37.67;102165.03;5047447;28;20084;-74
2023/04/18 10:19:44;;;;;;;10.70;7.07;;;;;;;11.19;37.88;102164.84;5079122;28;20039;-74
2023/04/18 10:22:13;;;;;;;9.80;6.80;;;;;;;11.24;37.75;102161.75;5078533;28;20048;-74
2023/04/18 10:24:51;;;;;;;9.05;6.43;;;;;;;11.32;37.67;102151.13;5072673;28;20128;-75
2023/04/18 10:27:58;;;;;;;10.57;6.93;;;;;;;11.36;38.03;102167.28;5070123;28;20151;-75
2023/04/18 10:30:52;;;;;;;9.98;7.20;;;;;;;11.43;37.75;102155.88;5068015;28;20094;-75
2023/04/18 10:33:22;;;;;;;10.05;7.25;;;;;;;11.50;38.05;102154.44;5071535;28;20067;-75
2023/04/18 10:36:14;;;;;;;10.25;7.45;;;;;;;11.60;37.87;102152.81;5064595;28;20045;-75
2023/04/18 10:38:48;;;;;;;11.30;7.40;;;;;;;11.69;37.87;102153.06;5068708;28;20070;-75
2023/04/18 10:41:26;;;;;;;10.00;6.95;;;;;;;11.79;37.78;102146.91;5075533;28;20546;-75
2023/04/18 10:44:22;;;;;;;11.85;7.75;;;;;;;11.86;37.34;102157.34;5072728;28;20036;-76
2023/04/18 10:47:30;;;;;;;9.30;6.60;;;;;;;11.90;37.36;102147.88;5066708;28;20115;-76
2023/04/18 10:50:02;;;;;;;9.57;7.15;;;;;;;11.99;37.86;102138.09;5065788;28;20040;-75
2023/04/18 10:52:34;;;;;;;10.75;6.78;;;;;;;12.07;37.54;102136.53;5073859;28;20121;-75
2023/04/18 10:55:15;;;;;;;8.70;6.75;;;;;;;12.19;37.07;102148.50;5079832;28;20032;-75
2023/04/18 10:57:46;;;;;;;10.48;6.80;;;;;;;12.25;37.32;102144.41;5067591;28;20546;-75
2023/04/18 11:00:17;;;;;;;9.50;6.95;;;;;;;12.31;36.93;102147.56;5082541;28;20040;-76
2023/04/18 11:02:50;;;;;;;10.13;7.45;;;;;;;12.39;37.29;102141.50;5068727;28;20694;-75
2023/04/18 11:05:20;;;;;;;10.73;7.25;;;;;;;12.42;37.29;102144.03;5070528;28;20078;-75
2023/04/18 11:07:48;;;;;;;10.07;6.97;;;;;;;12.47;37.16;102136.31;5067658;28;20552;-75
2023/04/18 11:10:18;;;;;;;10.20;7.28;;;;;;;12.50;36.44;102144.31;5076049;28;20048;-75
2023/04/18 11:12:48;;;;;;;9.15;6.80;;;;;;;12.54;36.46;102144.97;5070724;28;20056;-76
2023/04/18 11:15:20;;;;;;;9.00;6.80;;;;;;;12.56;36.30;102143.84;5069962;28;20533;-75
2023/04/18 11:18:00;;;;;;;11.50;6.90;;;;;;;12.56;36.66;102143.84;5070135;28;20322;-75
2023/04/18 11:20:28;;;;;;;9.55;6.95;;;;;;;12.55;36.83;102141.22;5076867;28;20055;-75
2023/04/18 11:22:58;;;;;;;10.60;6.97;;;;;;;12.57;36.16;102145.59;5076062;28;20033;-75
2023/04/18 11:25:28;;;;;;;8.85;6.55;;;;;;;12.57;36.40;102137.38;5050292;28;20045;-75
2023/04/18 11:28:00;;;;;;;8.68;6.53;;;;;;;12.57;35.95;102140.13;5075125;28;20115;-75
2023/04/18 11:30:35;;;;;;;8.80;6.70;;;;;;;12.52;36.25;102134.09;5070475;28;20127;-75
2023/04/18 11:33:06;;;;;;;8.13;6.22;;;;;;;12.53;36.58;102140.47;5067098;28;20116;-75
2023/04/18 11:35:38;;;;;;;9.80;6.80;;;;;;;12.50;36.19;102125.09;5075292;28;20048;-75
2023/04/18 11:38:06;;;;;;;11.27;7.17;;;;;;;12.41;36.64;102129.41;5073516;28;20442;-75
2023/04/18 11:40:35;;;;;;;10.25;7.03;;;;;;;12.42;36.22;102124.81;5072135;28;20040;-75